M\v Muammer Yagci — TCBK7 — position and weather

sailwx.info

Track history (hours):
 
Tides and Currents Weather Stations Pressure Air Temp Water Temp Dewpoint Dewpoint Depression Visibility Wind Speed Wind Dir Waves Ship Positions

M\v Muammer Yagci

Last reported at 2017-Nov-25 01:31 UTC. Time now 2017-Nov-25 01:52 UTC.
Position N 38°51' W 010°06'.

Length 75 m; draft 5.3 m.

Type: Cargo ship. MMSI: 271002144.

Date/timePositionNaut miles runAvg speedWind from/ knotsBaromVisibWave heightAir tempDewpointWater temp
2017-Nov-25 01:31N 38°51' W 010°06'4 9.0
2017-Nov-25 01:01N 38°56' W 010°06'5 9.4
2017-Nov-25 00:31N 39°00' W 010°06'5 9.6
2017-Nov-25 00:00N 39°05' W 010°06'5 9.5
2017-Nov-24 23:30N 39°10' W 010°06'44 9.1
2017-Nov-24 18:41N 39°54' W 010°06'2 9.0
2017-Nov-24 18:26N 39°56' W 010°06'251 6.6
2017-Nov-23 04:18N 43°49' W 007°59'2 6.9
2017-Nov-23 04:00N 43°49' W 007°56'3 6.7
2017-Nov-23 03:30N 43°50' W 007°51'4 6.6
2017-Nov-23 02:53N 43°50' W 007°46'3 7.2
2017-Nov-23 02:30N 43°50' W 007°42'4 7.2
2017-Nov-23 02:00N 43°49' W 007°37'4 8.1
2017-Nov-23 01:30N 43°48' W 007°31'4 8.0
2017-Nov-23 01:00N 43°48' W 007°26'4 8.0
2017-Nov-23 00:30N 43°47' W 007°20'  
2017-Nov-20 00:28N 43°25' W 002°43'0 0.0
2017-Nov-19 23:58N 43°25' W 002°43'0 0.0
2017-Nov-19 23:28N 43°25' W 002°43'0 0.0
2017-Nov-19 22:58N 43°25' W 002°43'0 0.0
2017-Nov-19 22:28N 43°25' W 002°43'0 0.0
2017-Nov-19 21:57N 43°25' W 002°43'0 0.0
2017-Nov-19 21:29N 43°25' W 002°43'0 0.0
2017-Nov-19 21:00N 43°25' W 002°43'0 0.0
2017-Nov-19 20:28N 43°25' W 002°43'0 0.0
2017-Nov-19 19:58N 43°25' W 002°43'0 0.0
2017-Nov-19 19:30N 43°25' W 002°43'0 0.0
2017-Nov-19 19:00N 43°25' W 002°43'0 0.0
2017-Nov-19 18:30N 43°25' W 002°43'0 0.0
2017-Nov-19 17:59N 43°25' W 002°43'0 0.0
2017-Nov-19 17:30N 43°25' W 002°43'0 0.0
2017-Nov-19 16:59N 43°25' W 002°43'0 0.0
2017-Nov-19 16:27N 43°25' W 002°43'0 0.0
2017-Nov-19 16:00N 43°25' W 002°43'0 0.0
2017-Nov-19 15:30N 43°25' W 002°43'0 0.0
2017-Nov-19 15:00N 43°25' W 002°43'0 0.0
2017-Nov-19 14:30N 43°25' W 002°43'0 0.0
2017-Nov-19 13:57N 43°25' W 002°43'0 0.0
2017-Nov-19 13:25N 43°25' W 002°43'0 0.0
2017-Nov-19 13:00N 43°25' W 002°43'0 0.0
2017-Nov-19 12:29N 43°25' W 002°43'0 0.0
2017-Nov-19 11:59N 43°25' W 002°43'0 0.0
2017-Nov-19 11:28N 43°25' W 002°43'0 0.0
2017-Nov-19 10:56N 43°25' W 002°43'0 0.0
2017-Nov-19 10:29N 43°25' W 002°43'0 0.0
2017-Nov-19 09:59N 43°25' W 002°43'0 0.0
2017-Nov-19 09:30N 43°25' W 002°43'0 0.0
2017-Nov-19 09:00N 43°25' W 002°43'0 0.0
2017-Nov-19 08:27N 43°25' W 002°43'0 0.0
2017-Nov-19 08:00N 43°25' W 002°43'0 0.0
2017-Nov-19 07:30N 43°25' W 002°43'0 0.0
2017-Nov-19 06:59N 43°25' W 002°43'0 0.0
2017-Nov-19 06:29N 43°25' W 002°43'0 0.0
2017-Nov-19 06:00N 43°25' W 002°43'0 0.0
2017-Nov-19 05:30N 43°25' W 002°43'0 0.0
2017-Nov-19 04:55N 43°25' W 002°43'0 0.0
2017-Nov-19 04:28N 43°25' W 002°43'0 0.0
2017-Nov-19 03:59N 43°25' W 002°43'0 0.0
2017-Nov-19 03:30N 43°25' W 002°43'0 0.0
2017-Nov-19 02:58N 43°25' W 002°43'0 0.0
2017-Nov-19 02:28N 43°25' W 002°43'0 0.0
2017-Nov-19 01:58N 43°25' W 002°43'0 0.0
2017-Nov-19 01:28N 43°25' W 002°43'0 0.0
2017-Nov-19 00:58N 43°25' W 002°43'0 0.0
2017-Nov-19 00:28N 43°25' W 002°43'0 0.0
2017-Nov-18 23:58N 43°25' W 002°43'0 0.0
2017-Nov-18 23:28N 43°25' W 002°43'0 0.0
2017-Nov-18 22:58N 43°25' W 002°43'0 0.0
2017-Nov-18 22:30N 43°25' W 002°43'0 0.0
2017-Nov-18 21:58N 43°25' W 002°43'0 0.0
2017-Nov-18 21:28N 43°25' W 002°43'0 0.0
2017-Nov-18 20:58N 43°25' W 002°43'0 0.0
2017-Nov-18 20:28N 43°25' W 002°43'0 0.0
2017-Nov-18 19:58N 43°25' W 002°43'0 0.0
2017-Nov-18 19:28N 43°25' W 002°43'0 0.0
2017-Nov-18 18:58N 43°25' W 002°43'0 0.0
2017-Nov-18 18:28N 43°25' W 002°43'0 0.0
2017-Nov-18 17:58N 43°25' W 002°43'0 0.0
2017-Nov-18 17:28N 43°25' W 002°43'0 0.0
2017-Nov-18 16:58N 43°25' W 002°43'0 0.0
2017-Nov-18 16:28N 43°25' W 002°43'0 0.0
2017-Nov-18 15:58N 43°25' W 002°43'0 0.0
2017-Nov-18 15:25N 43°25' W 002°43'0 0.0
2017-Nov-18 14:58N 43°25' W 002°43'0 0.0
2017-Nov-18 14:30N 43°25' W 002°43'0 0.0
2017-Nov-18 14:00N 43°25' W 002°43'0 0.0
2017-Nov-18 13:30N 43°25' W 002°43'0 0.0
2017-Nov-18 13:00N 43°25' W 002°43'0 0.0
2017-Nov-18 12:27N 43°25' W 002°43'0 0.0
2017-Nov-18 12:00N 43°25' W 002°43'0 0.0
2017-Nov-18 11:27N 43°25' W 002°43'0 0.0
2017-Nov-18 11:00N 43°25' W 002°43'0 0.0
2017-Nov-18 10:28N 43°25' W 002°43'0 0.0
2017-Nov-18 10:00N 43°25' W 002°43'0 0.0
2017-Nov-18 09:24N 43°25' W 002°43'0 0.0
2017-Nov-18 08:59N 43°25' W 002°43'0 0.0
2017-Nov-18 08:29N 43°25' W 002°43'1 1.2
2017-Nov-18 08:00N 43°26' W 002°42'4 8.4
2017-Nov-18 07:31N 43°29' W 002°45'4 8.4
2017-Nov-18 07:01N 43°33' W 002°47'0 0.2
2017-Nov-18 06:31N 43°33' W 002°48'0 0.1
2017-Nov-18 06:00N 43°33' W 002°48'0 0.1
2017-Nov-18 05:31N 43°33' W 002°48'0 0.1
2017-Nov-18 05:00N 43°33' W 002°48'0 0.1
2017-Nov-18 04:31N 43°33' W 002°48'0 0.1
2017-Nov-18 04:00N 43°33' W 002°48'0 0.0
2017-Nov-18 03:31N 43°33' W 002°48'0 0.1
2017-Nov-18 03:01N 43°33' W 002°48'0 0.1
2017-Nov-18 02:30N 43°33' W 002°48'0 0.0
2017-Nov-18 02:00N 43°33' W 002°48'0 0.1
2017-Nov-18 01:31N 43°33' W 002°48'0 0.3
2017-Nov-18 01:01N 43°33' W 002°48'1 1.8
2017-Nov-18 00:31N 43°32' W 002°47'0 0.2
2017-Nov-18 00:01N 43°32' W 002°47'0 0.2
2017-Nov-17 23:31N 43°32' W 002°47'0 0.1
2017-Nov-17 23:01N 43°33' W 002°47'0 0.1
2017-Nov-17 22:31N 43°33' W 002°47'1 1.1
2017-Nov-17 22:01N 43°32' W 002°46'3 6.5
2017-Nov-17 21:31N 43°29' W 002°44'3 5.1
2017-Nov-17 21:01N 43°31' W 002°46'5 9.2
2017-Nov-17 20:31N 43°36' W 002°48'510.0
2017-Nov-17 20:01N 43°40' W 002°51'5 9.9
2017-Nov-17 19:31N 43°45' W 002°54'510.2
2017-Nov-17 19:01N 43°49' W 002°57'510.2
2017-Nov-17 18:31N 43°54' W 002°60'610.3
2017-Nov-17 17:58N 43°59' W 003°03'11910.0
2017-Nov-17 06:04N 45°49' W 004°09'110.0
2017-Nov-17 06:00N 45°49' W 004°10'32 9.9
2017-Nov-17 02:46N 46°19' W 004°28'4 9.9
2017-Nov-17 02:25N 46°22' W 004°30'5 9.8
2017-Nov-17 01:56N 46°26' W 004°33'410.2
2017-Nov-17 01:30N 46°30' W 004°35'810.4
2017-Nov-17 00:41N 46°38' W 004°40'310.2
2017-Nov-17 00:23N 46°41' W 004°41'410.6
2017-Nov-17 00:00N 46°45' W 004°43'15 9.6
2017-Nov-16 22:29N 46°58' W 004°52'5 9.5
2017-Nov-16 21:58N 47°03' W 004°55'4 9.2
2017-Nov-16 21:30N 47°07' W 004°57'6 9.5
2017-Nov-16 20:53N 47°12' W 005°01'5 9.8
2017-Nov-16 20:25N 47°16' W 005°03'410.0
2017-Nov-16 20:00N 47°20' W 005°06'610.1
2017-Nov-16 19:24N 47°25' W 005°09'510.4
2017-Nov-16 18:58N 47°30' W 005°12'510.8
2017-Nov-16 18:29N 47°35' W 005°15'510.9
2017-Nov-16 17:59N 47°40' W 005°18'711.5
2017-Nov-16 17:21N 47°46' W 005°22'511.1
2017-Nov-16 16:56N 47°50' W 005°25'511.0
2017-Nov-16 16:30N 47°55' W 005°28'510.8
2017-Nov-16 16:00N 47°60' W 005°31'610.4
2017-Nov-16 15:28N 48°05' W 005°35'510.0
2017-Nov-16 15:00N 48°09' W 005°37'6 9.7
2017-Nov-16 14:23N 48°15' W 005°41'4 9.5
2017-Nov-16 14:00N 48°18' W 005°43'5 9.0
2017-Nov-16 13:27N 48°23' W 005°45'5 9.0
2017-Nov-16 12:51N 48°28' W 005°49'11 9.1
2017-Nov-16 11:41N 48°37' W 005°55'9 8.9
2017-Nov-16 10:40N 48°46' W 005°55'910.2
2017-Nov-16 09:50N 48°54' W 005°49'410.6
2017-Nov-16 09:28N 48°56' W 005°44'610.8
2017-Nov-16 08:54N 48°59' W 005°36'510.9
2017-Nov-16 08:26N 49°02' W 005°30'610.9
2017-Nov-16 07:51N 49°05' W 005°21'510.8
2017-Nov-16 07:23N 49°08' W 005°15'510.4
2017-Nov-16 06:54N 49°10' W 005°08'410.2
2017-Nov-16 06:29N 49°12' W 005°02'510.0
2017-Nov-16 05:59N 49°15' W 004°56'5 9.5
2017-Nov-16 05:28N 49°17' W 004°49'4 9.1
2017-Nov-16 05:00N 49°19' W 004°44'7 8.7
2017-Nov-16 04:13N 49°23' W 004°34'2 8.5
2017-Nov-16 04:00N 49°23' W 004°32'10 8.4
2017-Nov-16 02:51N 49°28' W 004°19'6 8.6
2017-Nov-16 02:06N 49°31' W 004°10'3 8.8
2017-Nov-16 01:47N 49°33' W 004°07'3 8.9
2017-Nov-16 01:29N 49°34' W 004°03'5 9.3
2017-Nov-16 00:55N 49°37' W 003°56'4 9.8
2017-Nov-16 00:31N 49°39' W 003°51'610.2
2017-Nov-15 23:57N 49°42' W 003°43'510.5
2017-Nov-15 23:30N 49°44' W 003°37'810.8
2017-Nov-15 22:47N 49°48' W 003°27'311.2
2017-Nov-15 22:30N 49°49' W 003°22'611.1
2017-Nov-15 22:00N 49°52' W 003°15'510.9
2017-Nov-15 21:30N 49°55' W 003°07'510.6
2017-Nov-15 21:00N 49°58' W 003°00'510.1
2017-Nov-15 20:28N 49°60' W 002°53'4 9.6
2017-Nov-15 20:01N 50°01' W 002°46'7 8.8
2017-Nov-15 19:14N 50°03' W 002°36'24 7.5
2017-Nov-15 16:06N 50°09' W 002°00'1 8.0
2017-Nov-15 16:00N 50°10' W 001°59'4 8.4
2017-Nov-15 15:30N 50°11' W 001°53'4 9.0
2017-Nov-15 15:00N 50°12' W 001°46'5 9.8
2017-Nov-15 14:30N 50°13' W 001°39'510.6
2017-Nov-15 14:00N 50°15' W 001°31'611.4
2017-Nov-15 13:30N 50°17' W 001°22'3811.8
2017-Nov-15 10:19N 50°27' W 000°25'310.6
2017-Nov-15 10:00N 50°28' W 000°20'510.3
2017-Nov-15 09:30N 50°29' W 000°13'510.0
2017-Nov-15 09:00N 50°31' W 000°05'5 9.4
2017-Nov-15 08:31N 50°32' E 000°02'5 9.0
2017-Nov-15 08:00N 50°33' E 000°09'4 8.4
2017-Nov-15 07:29N 50°34' E 000°16'4 8.2
2017-Nov-15 07:01N 50°35' E 000°21'4 7.9
2017-Nov-15 06:30N 50°37' E 000°27'4 8.2
2017-Nov-15 06:00N 50°38' E 000°34'4 8.7
2017-Nov-15 05:31N 50°40' E 000°39'5 9.3
2017-Nov-15 05:01N 50°43' E 000°45'5 9.9
2017-Nov-15 04:30N 50°46' E 000°52'510.5
2017-Nov-15 04:00N 50°49' E 000°58'611.0
2017-Nov-15 03:26N 50°53' E 001°06'511.3
2017-Nov-15 02:58N 50°56' E 001°12'511.1
2017-Nov-15 02:30N 50°60' E 001°18'510.8
2017-Nov-15 02:00N 51°03' E 001°25'  
Track history (hours):
 
Tides and Currents Weather Stations Pressure Air Temp Water Temp Dewpoint Dewpoint Depression Visibility Wind Speed Wind Dir Waves Ship Positions

M\v Muammer Yagci

Last reported at 2017-Nov-25 01:31 UTC. Time now 2017-Nov-25 01:52 UTC.
Position N 38°51' W 010°06'.

Length 75 m; draft 5.3 m.

Type: Cargo ship. MMSI: 271002144.

Date/timePositionNaut miles runAvg speedWind from/ knotsBaromVisibWave heightAir tempDewpointWater temp
2017-Nov-25 01:31N 38°51' W 010°06'4 9.0
2017-Nov-25 01:01N 38°56' W 010°06'5 9.4
2017-Nov-25 00:31N 39°00' W 010°06'5 9.6
2017-Nov-25 00:00N 39°05' W 010°06'5 9.5
2017-Nov-24 23:30N 39°10' W 010°06'44 9.1
2017-Nov-24 18:41N 39°54' W 010°06'2 9.0
2017-Nov-24 18:26N 39°56' W 010°06'251 6.6
2017-Nov-23 04:18N 43°49' W 007°59'2 6.9
2017-Nov-23 04:00N 43°49' W 007°56'3 6.7
2017-Nov-23 03:30N 43°50' W 007°51'4 6.6
2017-Nov-23 02:53N 43°50' W 007°46'3 7.2
2017-Nov-23 02:30N 43°50' W 007°42'4 7.2
2017-Nov-23 02:00N 43°49' W 007°37'4 8.1
2017-Nov-23 01:30N 43°48' W 007°31'4 8.0
2017-Nov-23 01:00N 43°48' W 007°26'4 8.0
2017-Nov-23 00:30N 43°47' W 007°20'  
2017-Nov-20 00:28N 43°25' W 002°43'0 0.0
2017-Nov-19 23:58N 43°25' W 002°43'0 0.0
2017-Nov-19 23:28N 43°25' W 002°43'0 0.0
2017-Nov-19 22:58N 43°25' W 002°43'0 0.0
2017-Nov-19 22:28N 43°25' W 002°43'0 0.0
2017-Nov-19 21:57N 43°25' W 002°43'0 0.0
2017-Nov-19 21:29N 43°25' W 002°43'0 0.0
2017-Nov-19 21:00N 43°25' W 002°43'0 0.0
2017-Nov-19 20:28N 43°25' W 002°43'0 0.0
2017-Nov-19 19:58N 43°25' W 002°43'0 0.0
2017-Nov-19 19:30N 43°25' W 002°43'0 0.0
2017-Nov-19 19:00N 43°25' W 002°43'0 0.0
2017-Nov-19 18:30N 43°25' W 002°43'0 0.0
2017-Nov-19 17:59N 43°25' W 002°43'0 0.0
2017-Nov-19 17:30N 43°25' W 002°43'0 0.0
2017-Nov-19 16:59N 43°25' W 002°43'0 0.0
2017-Nov-19 16:27N 43°25' W 002°43'0 0.0
2017-Nov-19 16:00N 43°25' W 002°43'0 0.0
2017-Nov-19 15:30N 43°25' W 002°43'0 0.0
2017-Nov-19 15:00N 43°25' W 002°43'0 0.0
2017-Nov-19 14:30N 43°25' W 002°43'0 0.0
2017-Nov-19 13:57N 43°25' W 002°43'0 0.0
2017-Nov-19 13:25N 43°25' W 002°43'0 0.0
2017-Nov-19 13:00N 43°25' W 002°43'0 0.0
2017-Nov-19 12:29N 43°25' W 002°43'0 0.0
2017-Nov-19 11:59N 43°25' W 002°43'0 0.0
2017-Nov-19 11:28N 43°25' W 002°43'0 0.0
2017-Nov-19 10:56N 43°25' W 002°43'0 0.0
2017-Nov-19 10:29N 43°25' W 002°43'0 0.0
2017-Nov-19 09:59N 43°25' W 002°43'0 0.0
2017-Nov-19 09:30N 43°25' W 002°43'0 0.0
2017-Nov-19 09:00N 43°25' W 002°43'0 0.0
2017-Nov-19 08:27N 43°25' W 002°43'0 0.0
2017-Nov-19 08:00N 43°25' W 002°43'0 0.0
2017-Nov-19 07:30N 43°25' W 002°43'0 0.0
2017-Nov-19 06:59N 43°25' W 002°43'0 0.0
2017-Nov-19 06:29N 43°25' W 002°43'0 0.0
2017-Nov-19 06:00N 43°25' W 002°43'0 0.0
2017-Nov-19 05:30N 43°25' W 002°43'0 0.0
2017-Nov-19 04:55N 43°25' W 002°43'0 0.0
2017-Nov-19 04:28N 43°25' W 002°43'0 0.0
2017-Nov-19 03:59N 43°25' W 002°43'0 0.0
2017-Nov-19 03:30N 43°25' W 002°43'0 0.0
2017-Nov-19 02:58N 43°25' W 002°43'0 0.0
2017-Nov-19 02:28N 43°25' W 002°43'0 0.0
2017-Nov-19 01:58N 43°25' W 002°43'0 0.0
2017-Nov-19 01:28N 43°25' W 002°43'0 0.0
2017-Nov-19 00:58N 43°25' W 002°43'0 0.0
2017-Nov-19 00:28N 43°25' W 002°43'0 0.0
2017-Nov-18 23:58N 43°25' W 002°43'0 0.0
2017-Nov-18 23:28N 43°25' W 002°43'0 0.0
2017-Nov-18 22:58N 43°25' W 002°43'0 0.0
2017-Nov-18 22:30N 43°25' W 002°43'0 0.0
2017-Nov-18 21:58N 43°25' W 002°43'0 0.0
2017-Nov-18 21:28N 43°25' W 002°43'0 0.0
2017-Nov-18 20:58N 43°25' W 002°43'0 0.0
2017-Nov-18 20:28N 43°25' W 002°43'0 0.0
2017-Nov-18 19:58N 43°25' W 002°43'0 0.0
2017-Nov-18 19:28N 43°25' W 002°43'0 0.0
2017-Nov-18 18:58N 43°25' W 002°43'0 0.0
2017-Nov-18 18:28N 43°25' W 002°43'0 0.0
2017-Nov-18 17:58N 43°25' W 002°43'0 0.0
2017-Nov-18 17:28N 43°25' W 002°43'0 0.0
2017-Nov-18 16:58N 43°25' W 002°43'0 0.0
2017-Nov-18 16:28N 43°25' W 002°43'0 0.0
2017-Nov-18 15:58N 43°25' W 002°43'0 0.0
2017-Nov-18 15:25N 43°25' W 002°43'0 0.0
2017-Nov-18 14:58N 43°25' W 002°43'0 0.0
2017-Nov-18 14:30N 43°25' W 002°43'0 0.0
2017-Nov-18 14:00N 43°25' W 002°43'0 0.0
2017-Nov-18 13:30N 43°25' W 002°43'0 0.0
2017-Nov-18 13:00N 43°25' W 002°43'0 0.0
2017-Nov-18 12:27N 43°25' W 002°43'0 0.0
2017-Nov-18 12:00N 43°25' W 002°43'0 0.0
2017-Nov-18 11:27N 43°25' W 002°43'0 0.0
2017-Nov-18 11:00N 43°25' W 002°43'0 0.0
2017-Nov-18 10:28N 43°25' W 002°43'0 0.0
2017-Nov-18 10:00N 43°25' W 002°43'0 0.0
2017-Nov-18 09:24N 43°25' W 002°43'0 0.0
2017-Nov-18 08:59N 43°25' W 002°43'0 0.0
2017-Nov-18 08:29N 43°25' W 002°43'1 1.2
2017-Nov-18 08:00N 43°26' W 002°42'4 8.4
2017-Nov-18 07:31N 43°29' W 002°45'4 8.4
2017-Nov-18 07:01N 43°33' W 002°47'0 0.2
2017-Nov-18 06:31N 43°33' W 002°48'0 0.1
2017-Nov-18 06:00N 43°33' W 002°48'0 0.1
2017-Nov-18 05:31N 43°33' W 002°48'0 0.1
2017-Nov-18 05:00N 43°33' W 002°48'0 0.1
2017-Nov-18 04:31N 43°33' W 002°48'0 0.1
2017-Nov-18 04:00N 43°33' W 002°48'0 0.0
2017-Nov-18 03:31N 43°33' W 002°48'0 0.1
2017-Nov-18 03:01N 43°33' W 002°48'0 0.1
2017-Nov-18 02:30N 43°33' W 002°48'0 0.0
2017-Nov-18 02:00N 43°33' W 002°48'0 0.1
2017-Nov-18 01:31N 43°33' W 002°48'0 0.3
2017-Nov-18 01:01N 43°33' W 002°48'1 1.8
2017-Nov-18 00:31N 43°32' W 002°47'0 0.2
2017-Nov-18 00:01N 43°32' W 002°47'0 0.2
2017-Nov-17 23:31N 43°32' W 002°47'0 0.1
2017-Nov-17 23:01N 43°33' W 002°47'0 0.1
2017-Nov-17 22:31N 43°33' W 002°47'1 1.1
2017-Nov-17 22:01N 43°32' W 002°46'3 6.5
2017-Nov-17 21:31N 43°29' W 002°44'3 5.1
2017-Nov-17 21:01N 43°31' W 002°46'5 9.2
2017-Nov-17 20:31N 43°36' W 002°48'510.0
2017-Nov-17 20:01N 43°40' W 002°51'5 9.9
2017-Nov-17 19:31N 43°45' W 002°54'510.2
2017-Nov-17 19:01N 43°49' W 002°57'510.2
2017-Nov-17 18:31N 43°54' W 002°60'610.3
2017-Nov-17 17:58N 43°59' W 003°03'11910.0
2017-Nov-17 06:04N 45°49' W 004°09'110.0
2017-Nov-17 06:00N 45°49' W 004°10'32 9.9
2017-Nov-17 02:46N 46°19' W 004°28'4 9.9
2017-Nov-17 02:25N 46°22' W 004°30'5 9.8
2017-Nov-17 01:56N 46°26' W 004°33'410.2
2017-Nov-17 01:30N 46°30' W 004°35'810.4
2017-Nov-17 00:41N 46°38' W 004°40'310.2
2017-Nov-17 00:23N 46°41' W 004°41'410.6
2017-Nov-17 00:00N 46°45' W 004°43'15 9.6
2017-Nov-16 22:29N 46°58' W 004°52'5 9.5
2017-Nov-16 21:58N 47°03' W 004°55'4 9.2
2017-Nov-16 21:30N 47°07' W 004°57'6 9.5
2017-Nov-16 20:53N 47°12' W 005°01'5 9.8
2017-Nov-16 20:25N 47°16' W 005°03'410.0
2017-Nov-16 20:00N 47°20' W 005°06'610.1
2017-Nov-16 19:24N 47°25' W 005°09'510.4
2017-Nov-16 18:58N 47°30' W 005°12'510.8
2017-Nov-16 18:29N 47°35' W 005°15'510.9
2017-Nov-16 17:59N 47°40' W 005°18'711.5
2017-Nov-16 17:21N 47°46' W 005°22'511.1
2017-Nov-16 16:56N 47°50' W 005°25'511.0
2017-Nov-16 16:30N 47°55' W 005°28'510.8
2017-Nov-16 16:00N 47°60' W 005°31'610.4
2017-Nov-16 15:28N 48°05' W 005°35'510.0
2017-Nov-16 15:00N 48°09' W 005°37'6 9.7
2017-Nov-16 14:23N 48°15' W 005°41'4 9.5
2017-Nov-16 14:00N 48°18' W 005°43'5 9.0
2017-Nov-16 13:27N 48°23' W 005°45'5 9.0
2017-Nov-16 12:51N 48°28' W 005°49'11 9.1
2017-Nov-16 11:41N 48°37' W 005°55'9 8.9
2017-Nov-16 10:40N 48°46' W 005°55'910.2
2017-Nov-16 09:50N 48°54' W 005°49'410.6
2017-Nov-16 09:28N 48°56' W 005°44'610.8
2017-Nov-16 08:54N 48°59' W 005°36'510.9
2017-Nov-16 08:26N 49°02' W 005°30'610.9
2017-Nov-16 07:51N 49°05' W 005°21'510.8
2017-Nov-16 07:23N 49°08' W 005°15'510.4
2017-Nov-16 06:54N 49°10' W 005°08'410.2
2017-Nov-16 06:29N 49°12' W 005°02'510.0
2017-Nov-16 05:59N 49°15' W 004°56'5 9.5
2017-Nov-16 05:28N 49°17' W 004°49'4 9.1
2017-Nov-16 05:00N 49°19' W 004°44'7 8.7
2017-Nov-16 04:13N 49°23' W 004°34'2 8.5
2017-Nov-16 04:00N 49°23' W 004°32'10 8.4
2017-Nov-16 02:51N 49°28' W 004°19'6 8.6
2017-Nov-16 02:06N 49°31' W 004°10'3 8.8
2017-Nov-16 01:47N 49°33' W 004°07'3 8.9
2017-Nov-16 01:29N 49°34' W 004°03'5 9.3
2017-Nov-16 00:55N 49°37' W 003°56'4 9.8
2017-Nov-16 00:31N 49°39' W 003°51'610.2
2017-Nov-15 23:57N 49°42' W 003°43'510.5
2017-Nov-15 23:30N 49°44' W 003°37'810.8
2017-Nov-15 22:47N 49°48' W 003°27'311.2
2017-Nov-15 22:30N 49°49' W 003°22'611.1
2017-Nov-15 22:00N 49°52' W 003°15'510.9
2017-Nov-15 21:30N 49°55' W 003°07'510.6
2017-Nov-15 21:00N 49°58' W 003°00'510.1
2017-Nov-15 20:28N 49°60' W 002°53'4 9.6
2017-Nov-15 20:01N 50°01' W 002°46'7 8.8
2017-Nov-15 19:14N 50°03' W 002°36'24 7.5
2017-Nov-15 16:06N 50°09' W 002°00'1 8.0
2017-Nov-15 16:00N 50°10' W 001°59'4 8.4
2017-Nov-15 15:30N 50°11' W 001°53'4 9.0
2017-Nov-15 15:00N 50°12' W 001°46'5 9.8
2017-Nov-15 14:30N 50°13' W 001°39'510.6
2017-Nov-15 14:00N 50°15' W 001°31'611.4
2017-Nov-15 13:30N 50°17' W 001°22'3811.8
2017-Nov-15 10:19N 50°27' W 000°25'310.6
2017-Nov-15 10:00N 50°28' W 000°20'510.3
2017-Nov-15 09:30N 50°29' W 000°13'510.0
2017-Nov-15 09:00N 50°31' W 000°05'5 9.4
2017-Nov-15 08:31N 50°32' E 000°02'5 9.0
2017-Nov-15 08:00N 50°33' E 000°09'4 8.4
2017-Nov-15 07:29N 50°34' E 000°16'4 8.2
2017-Nov-15 07:01N 50°35' E 000°21'4 7.9
2017-Nov-15 06:30N 50°37' E 000°27'4 8.2
2017-Nov-15 06:00N 50°38' E 000°34'4 8.7
2017-Nov-15 05:31N 50°40' E 000°39'5 9.3
2017-Nov-15 05:01N 50°43' E 000°45'5 9.9
2017-Nov-15 04:30N 50°46' E 000°52'510.5
2017-Nov-15 04:00N 50°49' E 000°58'611.0
2017-Nov-15 03:26N 50°53' E 001°06'511.3
2017-Nov-15 02:58N 50°56' E 001°12'511.1
2017-Nov-15 02:30N 50°60' E 001°18'510.8
2017-Nov-15 02:00N 51°03' E 001°25'  

Dump ship's entire track history